Time;durP1;ratioP1;P1;durP2;ratioP2;P2;SDS_P1;SDS_P2;PMS_P1;PMS_P2;Temp;Humidity;BMP_temperature;BMP_pressure;BME280_temperature;BME280_humidity;BME280_pressure;Samples;Min_cycle;Max_cycle;Signal;HPM_P1;HPM_P2
2022/04/05 00:01:43;;;;;;;7.88;1.75;;;7.30;99.90;;;;;;5073896;28;20039;-73
2022/04/05 00:04:10;;;;;;;6.97;1.83;;;7.20;99.90;;;;;;5075179;28;20127;-73
2022/04/05 00:06:36;;;;;;;8.68;1.60;;;7.20;99.90;;;;;;5058120;28;20036;-74
2022/04/05 00:09:02;;;;;;;9.25;1.92;;;7.20;99.90;;;;;;5075093;28;20101;-73
2022/04/05 00:11:28;;;;;;;6.85;2.10;;;7.20;99.90;;;;;;5073987;28;20051;-73
2022/04/05 00:13:54;;;;;;;7.03;1.92;;;7.20;99.90;;;;;;5076091;28;20032;-74
2022/04/05 00:16:20;;;;;;;8.57;2.13;;;7.20;99.90;;;;;;5074665;28;20040;-75
2022/04/05 00:18:45;;;;;;;8.85;2.13;;;7.20;99.90;;;;;;5074560;28;20060;-73
2022/04/05 00:21:11;;;;;;;7.90;1.63;;;7.20;99.90;;;;;;5057748;28;20123;-73
2022/04/05 00:23:37;;;;;;;6.95;1.92;;;7.20;99.90;;;;;;5074645;28;20052;-73
2022/04/05 00:26:03;;;;;;;6.22;1.58;;;7.10;99.90;;;;;;5074451;28;20170;-73
2022/04/05 00:28:29;;;;;;;7.18;1.90;;;7.10;99.90;;;;;;5075739;28;20032;-73
2022/04/05 00:30:54;;;;;;;7.88;1.35;;;7.10;99.90;;;;;;5074328;28;20042;-73
2022/04/05 00:33:20;;;;;;;6.65;1.42;;;7.10;99.90;;;;;;5075609;28;20040;-73
2022/04/05 00:35:46;;;;;;;8.93;1.95;;;7.10;99.90;;;;;;5074250;28;20083;-74
2022/04/05 00:38:14;;;;;;;4.55;1.20;;;7.10;99.90;;;;;;5075491;28;20044;-74
2022/04/05 00:40:40;;;;;;;6.47;1.70;;;7.10;99.90;;;;;;5075350;28;20044;-72
2022/04/05 00:43:05;;;;;;;7.53;1.25;;;7.10;99.90;;;;;;5072073;28;20033;-72
2022/04/05 00:45:33;;;;;;;5.25;0.95;;;7.10;99.90;;;;;;5057341;28;20135;-73
2022/04/05 00:47:59;;;;;;;5.25;1.10;;;7.10;99.90;;;;;;5057365;28;20123;-72
2022/04/05 00:50:27;;;;;;;6.13;1.30;;;7.10;99.90;;;;;;5075025;28;20492;-72
2022/04/05 00:52:53;;;;;;;6.32;1.02;;;7.00;99.90;;;;;;5073964;28;20037;-73
2022/04/05 00:55:22;;;;;;;4.88;1.30;;;7.00;99.90;;;;;;5075332;28;20044;-73
2022/04/05 00:57:53;;;;;;;6.60;1.02;;;7.00;99.90;;;;;;5074016;28;20044;-73
2022/04/05 01:00:19;;;;;;;4.20;0.90;;;7.00;99.90;;;;;;5075010;28;20049;-73
2022/04/05 01:02:48;;;;;;;3.83;0.88;;;7.00;99.90;;;;;;5074070;28;20089;-73
2022/04/05 01:05:19;;;;;;;3.80;0.70;;;7.00;99.90;;;;;;5074637;28;20389;-72
2022/04/05 01:07:47;;;;;;;3.38;1.15;;;7.00;99.90;;;;;;5075176;28;20047;-73
2022/04/05 01:10:13;;;;;;;4.40;0.77;;;6.90;99.90;;;;;;5073658;28;20622;-73
2022/04/05 01:12:39;;;;;;;2.42;0.60;;;6.90;99.90;;;;;;5072293;28;20041;-73
2022/04/05 01:15:05;;;;;;;3.85;0.80;;;6.90;99.90;;;;;;5056900;28;20037;-72
2022/04/05 01:17:33;;;;;;;3.40;1.02;;;6.90;99.90;;;;;;5073746;28;20396;-72
2022/04/05 01:20:00;;;;;;;3.00;0.70;;;6.90;99.90;;;;;;5073343;28;20063;-72
2022/04/05 01:22:25;;;;;;;1.52;0.90;;;6.90;99.90;;;;;;5056716;28;20048;-72
2022/04/05 01:24:52;;;;;;;3.38;0.88;;;6.90;99.90;;;;;;5056738;28;20047;-72
2022/04/05 01:27:19;;;;;;;2.50;1.42;;;6.80;99.90;;;;;;5074735;28;20115;-71
2022/04/05 01:29:46;;;;;;;6.65;1.75;;;6.90;99.90;;;;;;5073591;28;20075;-74
2022/04/05 01:32:12;;;;;;;6.70;1.50;;;6.90;99.90;;;;;;5073186;28;20080;-71
2022/04/05 01:34:39;;;;;;;7.95;1.40;;;6.90;99.90;;;;;;5074454;28;20075;-72
2022/04/05 01:37:08;;;;;;;4.30;1.30;;;6.80;99.90;;;;;;5073072;28;20036;-71
2022/04/05 01:39:35;;;;;;;3.60;1.23;;;6.90;99.90;;;;;;5073252;28;20041;-72
2022/04/05 01:42:04;;;;;;;6.32;1.40;;;6.90;99.90;;;;;;5071086;28;20123;-72
2022/04/05 01:44:32;;;;;;;3.08;1.52;;;6.90;99.90;;;;;;5073309;28;20465;-71
2022/04/05 01:47:07;;;;;;;5.43;1.40;;;6.90;99.90;;;;;;5056201;28;20067;-71
2022/04/05 01:49:33;;;;;;;6.13;1.60;;;6.90;99.90;;;;;;5074403;28;20408;-71
2022/04/05 01:51:59;;;;;;;5.75;1.30;;;6.90;99.90;;;;;;5073955;28;20123;-71
2022/04/05 01:54:25;;;;;;;5.88;1.13;;;6.90;99.90;;;;;;5072700;28;20140;-72
2022/04/05 01:56:52;;;;;;;6.85;1.48;;;6.90;99.90;;;;;;5072697;28;20048;-71
2022/04/05 01:59:23;;;;;;;7.15;1.50;;;6.90;99.90;;;;;;5073871;28;20053;-73
2022/04/05 02:01:49;;;;;;;3.33;1.38;;;6.90;99.90;;;;;;5072830;28;20094;-72
2022/04/05 02:04:15;;;;;;;4.40;1.27;;;6.90;99.90;;;;;;5074039;28;20416;-74
2022/04/05 02:06:42;;;;;;;6.93;1.73;;;7.00;99.90;;;;;;5072513;28;20120;-71
2022/04/05 02:09:11;;;;;;;4.35;1.70;;;6.90;99.90;;;;;;5073873;28;20064;-71
2022/04/05 02:11:37;;;;;;;6.68;2.80;;;6.90;99.90;;;;;;5071479;28;20079;-71
2022/04/05 02:14:03;;;;;;;9.93;1.65;;;6.90;99.90;;;;;;5058440;28;20044;-71
2022/04/05 02:16:29;;;;;;;5.43;1.60;;;6.90;99.90;;;;;;5053258;28;20128;-72
2022/04/05 02:18:55;;;;;;;5.95;1.27;;;6.90;99.90;;;;;;5053614;28;20053;-71
2022/04/05 02:21:22;;;;;;;4.50;1.30;;;6.90;99.90;;;;;;5053607;28;20116;-71
2022/04/05 02:23:47;;;;;;;5.55;1.02;;;6.90;99.90;;;;;;5051580;28;20052;-71
2022/04/05 02:26:13;;;;;;;3.78;1.42;;;6.90;99.90;;;;;;5052436;28;20037;-71
2022/04/05 02:28:39;;;;;;;3.08;1.13;;;6.90;99.90;;;;;;5053420;28;20501;-71
2022/04/05 02:31:05;;;;;;;7.43;2.25;;;6.90;99.90;;;;;;5052125;28;20144;-72
2022/04/05 02:33:31;;;;;;;6.38;1.40;;;6.90;99.90;;;;;;5053505;28;20044;-71
2022/04/05 02:35:57;;;;;;;3.83;1.77;;;6.80;99.90;;;;;;5053294;28;20444;-70
2022/04/05 02:38:23;;;;;;;5.07;1.40;;;6.90;99.90;;;;;;5052245;28;20083;-70
2022/04/05 02:40:48;;;;;;;4.15;1.52;;;6.80;99.90;;;;;;5051904;28;20056;-70
2022/04/05 02:43:14;;;;;;;7.40;1.80;;;6.80;99.90;;;;;;5050964;28;20072;-71
2022/04/05 02:45:40;;;;;;;7.78;2.88;;;6.80;99.90;;;;;;5051874;28;20037;-71
2022/04/05 02:48:06;;;;;;;7.40;1.90;;;6.90;99.90;;;;;;5051753;28;20128;-70
2022/04/05 02:50:32;;;;;;;6.78;1.67;;;6.80;99.90;;;;;;5035017;28;20049;-70
2022/04/05 02:52:58;;;;;;;10.38;2.15;;;6.80;99.90;;;;;;5051633;28;20056;-70
2022/04/05 02:55:24;;;;;;;10.32;3.63;;;6.80;99.90;;;;;;5053039;28;20051;-71
2022/04/05 02:57:50;;;;;;;8.32;3.42;;;6.90;99.90;;;;;;5051881;28;20048;-71
2022/04/05 03:00:17;;;;;;;5.35;2.30;;;6.90;99.90;;;;;;5053060;28;20124;-71
2022/04/05 03:02:43;;;;;;;9.38;2.33;;;6.90;99.90;;;;;;5052776;28;20076;-70
2022/04/05 03:05:12;;;;;;;4.95;1.95;;;6.90;99.90;;;;;;5052992;28;20044;-70
2022/04/05 03:07:38;;;;;;;7.40;2.22;;;6.90;99.90;;;;;;5052437;28;20485;-71
2022/04/05 03:10:06;;;;;;;7.78;2.08;;;6.90;99.90;;;;;;5051778;28;20064;-70
2022/04/05 03:12:33;;;;;;;14.77;2.83;;;6.90;99.90;;;;;;5051819;28;20343;-71
2022/04/05 03:14:58;;;;;;;7.57;1.83;;;6.90;99.90;;;;;;5071524;28;20102;-72
2022/04/05 03:17:24;;;;;;;8.50;2.08;;;6.90;99.90;;;;;;5072979;28;20036;-71
2022/04/05 03:19:50;;;;;;;8.63;1.67;;;6.90;99.90;;;;;;5054513;28;20482;-71
2022/04/05 03:22:16;;;;;;;7.07;2.03;;;6.90;99.90;;;;;;5071552;28;20051;-70
2022/04/05 03:24:42;;;;;;;9.50;2.00;;;6.90;99.90;;;;;;5072624;28;20043;-71
2022/04/05 03:27:09;;;;;;;5.60;1.92;;;6.90;99.90;;;;;;5071589;28;20127;-71
2022/04/05 03:29:35;;;;;;;6.38;2.03;;;6.90;99.90;;;;;;5072824;28;20137;-71
2022/04/05 03:32:02;;;;;;;5.03;1.30;;;6.90;99.90;;;;;;5071244;28;20132;-71
2022/04/05 03:34:28;;;;;;;8.23;1.42;;;6.90;99.90;;;;;;5072702;28;20396;-71
2022/04/05 03:36:55;;;;;;;10.98;1.50;;;6.90;99.90;;;;;;5076324;28;20389;-71
2022/04/05 03:39:21;;;;;;;6.65;1.52;;;6.90;99.90;;;;;;5076590;28;20354;-71
2022/04/05 03:41:47;;;;;;;5.47;1.30;;;6.90;99.90;;;;;;5073532;28;20041;-71
2022/04/05 03:44:13;;;;;;;3.75;1.30;;;6.90;99.90;;;;;;5075570;28;20032;-70
2022/04/05 03:46:38;;;;;;;5.88;1.42;;;7.00;99.90;;;;;;5076716;28;20107;-71
2022/04/05 03:49:05;;;;;;;8.02;1.42;;;7.00;99.90;;;;;;5075214;28;20036;-71
2022/04/05 03:51:31;;;;;;;6.50;1.40;;;7.00;99.90;;;;;;5075017;28;20040;-72
2022/04/05 03:53:57;;;;;;;6.22;1.50;;;7.00;99.90;;;;;;5075034;28;20199;-71
2022/04/05 03:56:23;;;;;;;4.72;1.20;;;7.00;99.90;;;;;;5076641;28;20113;-71
2022/04/05 03:58:50;;;;;;;5.88;1.60;;;7.00;99.90;;;;;;5075209;28;20040;-71
2022/04/05 04:01:17;;;;;;;8.10;1.40;;;6.90;99.90;;;;;;5075307;28;20044;-71
2022/04/05 04:03:43;;;;;;;5.32;1.48;;;7.00;99.90;;;;;;5075894;28;20033;-71
2022/04/05 04:06:09;;;;;;;3.17;1.20;;;7.00;99.90;;;;;;5075263;28;20051;-71
2022/04/05 04:08:35;;;;;;;7.15;1.45;;;7.00;99.90;;;;;;5075111;28;20036;-71
2022/04/05 04:11:01;;;;;;;3.33;1.10;;;6.90;99.90;;;;;;5058194;28;20602;-72
2022/04/05 04:13:29;;;;;;;7.25;1.38;;;6.90;99.90;;;;;;5046628;28;20045;-71
2022/04/05 04:15:56;;;;;;;5.53;1.10;;;6.90;99.90;;;;;;5056007;28;20048;-71
2022/04/05 04:18:22;;;;;;;7.28;1.40;;;6.90;99.90;;;;;;5055746;28;20044;-71
2022/04/05 04:20:48;;;;;;;5.60;1.42;;;6.90;99.90;;;;;;5055977;28;20076;-71
2022/04/05 04:23:15;;;;;;;7.18;1.42;;;6.90;99.90;;;;;;5055778;28;20048;-70
2022/04/05 04:25:41;;;;;;;6.20;1.27;;;6.90;99.90;;;;;;5054630;28;20040;-70
2022/04/05 04:28:08;;;;;;;4.85;1.42;;;6.90;99.90;;;;;;5054495;28;20106;-71
2022/04/05 04:30:36;;;;;;;8.52;1.08;;;6.80;99.90;;;;;;5054551;28;20056;-71
2022/04/05 04:33:03;;;;;;;6.55;1.42;;;6.80;99.90;;;;;;5054675;28;20048;-71
2022/04/05 04:35:29;;;;;;;6.85;1.58;;;6.80;99.90;;;;;;5054737;28;20207;-70
2022/04/05 04:37:55;;;;;;;8.65;1.38;;;6.90;99.90;;;;;;5055497;28;20044;-70
2022/04/05 04:40:21;;;;;;;5.35;1.30;;;6.90;99.90;;;;;;5054305;28;20394;-70
2022/04/05 04:42:47;;;;;;;3.88;1.13;;;6.80;99.90;;;;;;5053473;28;20055;-70
2022/04/05 04:45:13;;;;;;;7.78;2.50;;;6.90;99.90;;;;;;5054500;28;20068;-70
2022/04/05 04:47:40;;;;;;;3.17;1.20;;;6.80;99.90;;;;;;5053588;28;20393;-71
2022/04/05 04:50:08;;;;;;;7.88;1.48;;;6.80;99.90;;;;;;5055493;28;20098;-70
2022/04/05 04:52:34;;;;;;;4.03;1.50;;;6.80;99.90;;;;;;5055305;28;20040;-70
2022/04/05 04:55:00;;;;;;;8.10;1.50;;;6.80;99.90;;;;;;5053975;28;20045;-70
2022/04/05 04:57:26;;;;;;;6.75;1.40;;;6.80;99.90;;;;;;5054262;28;20041;-70
2022/04/05 04:59:52;;;;;;;6.53;1.20;;;6.80;99.90;;;;;;5055134;28;20052;-71
2022/04/05 05:02:22;;;;;;;6.53;1.13;;;6.80;99.90;;;;;;5054212;28;20033;-71
2022/04/05 05:04:49;;;;;;;4.90;1.20;;;6.70;99.90;;;;;;5055083;28;20044;-70
2022/04/05 05:07:15;;;;;;;6.40;1.17;;;6.70;99.90;;;;;;5053838;28;20032;-70
2022/04/05 05:09:41;;;;;;;4.95;1.40;;;6.70;99.90;;;;;;5055161;28;20371;-70
2022/04/05 05:12:10;;;;;;;4.60;1.02;;;6.70;99.90;;;;;;5051502;28;20052;-70
2022/04/05 05:14:36;;;;;;;6.78;1.27;;;6.70;99.90;;;;;;5074288;28;20557;-70
2022/04/05 05:17:02;;;;;;;8.20;1.75;;;6.70;99.90;;;;;;5073683;28;20041;-70
2022/04/05 05:19:28;;;;;;;5.53;1.48;;;6.60;99.90;;;;;;5074593;28;20567;-70
2022/04/05 05:21:54;;;;;;;4.82;1.00;;;6.60;99.90;;;;;;5073783;28;20045;-70
2022/04/05 05:24:20;;;;;;;5.90;1.10;;;6.60;99.90;;;;;;5073422;28;20473;-70
2022/04/05 05:26:46;;;;;;;7.95;1.85;;;6.60;99.90;;;;;;5056884;28;20041;-70
2022/04/05 05:29:12;;;;;;;5.28;1.67;;;6.60;99.90;;;;;;5073317;28;20128;-70
2022/04/05 05:31:39;;;;;;;6.15;1.20;;;6.60;99.90;;;;;;5074681;28;20496;-70
2022/04/05 05:34:05;;;;;;;7.00;1.48;;;6.60;99.90;;;;;;5074517;28;20401;-70
2022/04/05 05:36:31;;;;;;;3.05;1.33;;;6.60;99.90;;;;;;5073606;28;20045;-70
2022/04/05 05:38:57;;;;;;;5.63;1.17;;;6.60;99.90;;;;;;5073340;28;22351;-70
2022/04/05 05:41:22;;;;;;;3.22;1.20;;;6.70;99.90;;;;;;5071249;28;21033;-70
2022/04/05 05:43:48;;;;;;;3.30;1.58;;;6.70;99.90;;;;;;5074512;28;20385;-70
2022/04/05 05:46:14;;;;;;;3.80;1.45;;;6.70;99.90;;;;;;5074387;28;20120;-70
2022/04/05 05:48:40;;;;;;;6.47;1.50;;;6.70;99.90;;;;;;5074140;28;20087;-70
2022/04/05 05:51:06;;;;;;;5.40;1.00;;;6.70;99.90;;;;;;5074226;28;20461;-70
2022/04/05 05:53:33;;;;;;;8.23;2.10;;;6.70;99.90;;;;;;5073096;28;20037;-70
2022/04/05 05:55:59;;;;;;;11.43;4.07;;;6.80;99.90;;;;;;5074126;28;20037;-70
2022/04/05 05:58:25;;;;;;;32.80;12.40;;;6.80;99.90;;;;;;5072311;28;20032;-70
2022/04/05 06:00:51;;;;;;;19.13;7.25;;;6.80;99.90;;;;;;5072465;28;20408;-71
2022/04/05 06:03:17;;;;;;;13.35;4.90;;;6.80;99.90;;;;;;5075890;28;20173;-71
2022/04/05 06:05:43;;;;;;;16.70;7.20;;;6.90;99.90;;;;;;5073843;28;20115;-69
2022/04/05 06:08:10;;;;;;;16.77;6.82;;;6.90;99.90;;;;;;5074133;28;20370;-70
2022/04/05 06:10:36;;;;;;;15.73;6.20;;;6.90;99.90;;;;;;5072640;28;20040;-71
2022/04/05 06:13:02;;;;;;;12.95;5.45;;;6.90;99.90;;;;;;5063878;28;20041;-70
2022/04/05 06:15:29;;;;;;;10.95;3.70;;;7.00;99.90;;;;;;5053693;28;20531;-70
2022/04/05 06:17:57;;;;;;;18.02;7.00;;;7.00;99.90;;;;;;5052735;28;20094;-70
2022/04/05 06:20:24;;;;;;;11.77;4.80;;;7.10;99.90;;;;;;5052070;28;20386;-70
2022/04/05 06:23:01;;;;;;;14.00;6.40;;;7.10;99.90;;;;;;5052582;28;20036;-70
2022/04/05 06:25:30;;;;;;;12.50;4.57;;;7.20;99.90;;;;;;5053189;28;20041;-70
2022/04/05 06:27:58;;;;;;;9.75;3.88;;;7.20;99.90;;;;;;5053613;28;20405;-70
2022/04/05 06:30:24;;;;;;;16.77;5.80;;;7.30;99.90;;;;;;5053368;28;20082;-71
2022/04/05 06:32:50;;;;;;;13.88;4.88;;;7.30;99.90;;;;;;5052532;28;20048;-71
2022/04/05 06:35:16;;;;;;;5.60;3.28;;;7.40;99.90;;;;;;5053525;28;20056;-71
2022/04/05 06:37:44;;;;;;;8.65;2.10;;;7.40;99.90;;;;;;5035794;28;20067;-70
2022/04/05 06:40:12;;;;;;;6.13;2.47;;;7.40;99.90;;;;;;5051951;28;20060;-71
2022/04/05 06:42:43;;;;;;;3.38;1.45;;;7.40;99.90;;;;;;5049823;28;20041;-69
2022/04/05 06:45:17;;;;;;;4.95;1.75;;;7.40;99.90;;;;;;5052037;28;20114;-71
2022/04/05 06:47:45;;;;;;;6.28;1.40;;;7.40;99.90;;;;;;5053427;28;20452;-71
2022/04/05 06:50:13;;;;;;;3.00;1.10;;;7.40;99.90;;;;;;5051730;28;20056;-71
2022/04/05 06:52:40;;;;;;;7.97;2.00;;;7.40;99.90;;;;;;5053155;28;20048;-71
2022/04/05 06:55:08;;;;;;;4.30;1.67;;;7.40;99.90;;;;;;5051741;28;20048;-71
2022/04/05 06:57:34;;;;;;;1.95;0.82;;;7.30;99.90;;;;;;5051928;28;20049;-71
2022/04/05 07:00:00;;;;;;;2.78;0.90;;;7.30;99.90;;;;;;5051599;28;20044;-71
2022/04/05 07:02:25;;;;;;;3.42;1.10;;;7.30;99.90;;;;;;5051665;28;20056;-71
2022/04/05 07:04:51;;;;;;;2.72;1.05;;;7.30;99.90;;;;;;5052922;28;20112;-73
2022/04/05 07:07:17;;;;;;;5.03;1.23;;;7.40;99.90;;;;;;5053038;28;20052;-71
2022/04/05 07:09:44;;;;;;;1.67;0.80;;;7.40;99.90;;;;;;5052448;28;20049;-71
2022/04/05 07:12:10;;;;;;;2.67;1.13;;;7.50;99.90;;;;;;5049645;28;20102;-71
2022/04/05 07:14:35;;;;;;;2.80;1.05;;;7.50;99.90;;;;;;5072215;28;20504;-71
2022/04/05 07:17:02;;;;;;;2.42;0.88;;;7.50;99.90;;;;;;5072741;28;20064;-71
2022/04/05 07:19:28;;;;;;;2.42;1.20;;;7.60;99.90;;;;;;5065484;28;20486;-70
2022/04/05 07:21:55;;;;;;;1.85;0.90;;;7.50;99.90;;;;;;5072645;28;20420;-70
2022/04/05 07:24:21;;;;;;;4.55;1.00;;;7.50;99.90;;;;;;5072610;28;20045;-71
2022/04/05 07:26:47;;;;;;;1.92;0.88;;;7.50;99.90;;;;;;5072535;28;20035;-71
2022/04/05 07:29:13;;;;;;;3.17;1.38;;;7.60;99.90;;;;;;5071306;28;20036;-70
2022/04/05 07:31:38;;;;;;;5.22;1.10;;;7.60;99.90;;;;;;5072588;28;20094;-71
2022/04/05 07:34:05;;;;;;;6.22;2.00;;;7.50;99.90;;;;;;5072491;28;20052;-71
2022/04/05 07:36:32;;;;;;;4.25;1.55;;;7.60;99.90;;;;;;5071163;28;20115;-71
2022/04/05 07:38:58;;;;;;;3.92;1.13;;;7.70;99.90;;;;;;5072501;28;20048;-71
2022/04/05 07:41:24;;;;;;;1.95;0.80;;;7.80;99.90;;;;;;5068773;28;20094;-71
2022/04/05 07:43:50;;;;;;;3.53;1.05;;;7.80;99.90;;;;;;5071315;28;20040;-71
2022/04/05 07:46:15;;;;;;;2.08;1.00;;;7.90;99.90;;;;;;5072681;28;20044;-72
2022/04/05 07:48:41;;;;;;;3.67;1.05;;;7.90;99.90;;;;;;5054780;28;20129;-72
2022/04/05 07:51:07;;;;;;;2.75;0.82;;;7.90;99.90;;;;;;5071148;28;20123;-72
2022/04/05 07:53:33;;;;;;;2.58;1.00;;;7.90;99.90;;;;;;5071419;28;20051;-72
2022/04/05 07:55:59;;;;;;;2.05;1.10;;;7.90;99.90;;;;;;5072310;28;20045;-72
2022/04/05 07:58:25;;;;;;;2.50;0.90;;;8.00;99.90;;;;;;5072633;28;20051;-72
2022/04/05 08:00:52;;;;;;;2.80;1.13;;;8.00;99.90;;;;;;5071038;28;20041;-72
2022/04/05 08:03:18;;;;;;;1.30;0.63;;;8.00;99.90;;;;;;5072571;28;20032;-72
2022/04/05 08:05:44;;;;;;;2.28;1.00;;;8.00;99.90;;;;;;5071067;28;20159;-71
2022/04/05 08:08:10;;;;;;;1.45;0.73;;;8.00;99.90;;;;;;5072441;28;20037;-71
2022/04/05 08:10:36;;;;;;;2.47;0.80;;;8.10;99.90;;;;;;5068369;28;20044;-72
2022/04/05 08:13:02;;;;;;;8.25;2.95;;;8.10;99.90;;;;;;5070090;28;20115;-73
2022/04/05 08:15:29;;;;;;;2.88;1.00;;;8.10;99.90;;;;;;5070919;28;20131;-72
2022/04/05 08:17:56;;;;;;;6.88;4.63;;;8.20;99.90;;;;;;5072316;28;20085;-72
2022/04/05 08:20:22;;;;;;;1.45;0.80;;;8.30;99.90;;;;;;5071929;28;20049;-71
2022/04/05 08:22:48;;;;;;;6.00;3.67;;;8.40;99.90;;;;;;5056219;28;20420;-71
2022/04/05 08:25:16;;;;;;;17.75;13.07;;;8.30;99.90;;;;;;5074739;28;20048;-71
2022/04/05 08:27:44;;;;;;;2.47;1.00;;;8.40;99.90;;;;;;5075842;28;20032;-72
2022/04/05 08:30:12;;;;;;;1.27;0.63;;;8.40;99.90;;;;;;5057744;28;20040;-73
2022/04/05 08:32:42;;;;;;;2.58;0.70;;;8.40;99.90;;;;;;5075921;28;20098;-72
2022/04/05 08:35:12;;;;;;;2.00;0.80;;;8.40;99.90;;;;;;5075740;28;20576;-72
2022/04/05 08:37:40;;;;;;;4.38;2.65;;;8.40;99.90;;;;;;5073629;28;20040;-72
2022/04/05 08:40:07;;;;;;;1.23;0.80;;;8.40;99.90;;;;;;5057602;28;20048;-73
2022/04/05 08:42:38;;;;;;;2.22;0.98;;;8.40;99.90;;;;;;5068467;28;20048;-72
2022/04/05 08:45:10;;;;;;;1.45;1.13;;;8.50;99.90;;;;;;5075454;28;20051;-73
2022/04/05 08:47:58;;;;;;;0.50;0.40;;;8.60;99.90;;;;;;5074373;28;20044;-73
2022/04/05 08:50:30;;;;;;;0.88;0.70;;;8.60;99.90;;;;;;5076549;28;20054;-74
2022/04/05 08:52:59;;;;;;;1.38;0.40;;;8.70;99.90;;;;;;5076049;28;20044;-73
2022/04/05 08:55:28;;;;;;;7.28;5.68;;;8.70;99.90;;;;;;5073958;28;20048;-73
2022/04/05 08:57:56;;;;;;;1.63;1.13;;;8.70;99.90;;;;;;5080186;28;20082;-74
2022/04/05 09:00:23;;;;;;;0.98;0.50;;;8.80;99.90;;;;;;5076390;28;20420;-74
2022/04/05 09:03:07;;;;;;;1.77;0.63;;;8.90;99.90;;;;;;5074255;28;20424;-73
2022/04/05 09:05:35;;;;;;;2.40;0.95;;;9.00;99.90;;;;;;5075308;28;20159;-73
2022/04/05 09:08:10;;;;;;;1.60;0.98;;;9.10;99.90;;;;;;5074108;28;20033;-73
2022/04/05 09:10:36;;;;;;;2.70;1.15;;;9.20;99.90;;;;;;5059821;28;20488;-74
2022/04/05 09:13:02;;;;;;;3.20;2.05;;;9.30;99.90;;;;;;5071599;28;20037;-74
2022/04/05 09:15:28;;;;;;;2.00;1.00;;;9.40;99.90;;;;;;5073428;28;20106;-73
2022/04/05 09:17:54;;;;;;;2.33;1.58;;;9.40;99.90;;;;;;5073783;28;20041;-73
2022/04/05 09:20:24;;;;;;;1.60;1.10;;;9.50;99.90;;;;;;5073265;28;20491;-72
2022/04/05 09:22:52;;;;;;;3.45;1.30;;;9.50;99.90;;;;;;5073576;28;20041;-73
2022/04/05 09:25:18;;;;;;;2.60;1.00;;;9.60;99.90;;;;;;5074559;28;20486;-73
2022/04/05 09:27:57;;;;;;;2.08;0.90;;;9.60;99.90;;;;;;5073197;28;20123;-73
2022/04/05 09:30:31;;;;;;;2.60;0.98;;;9.70;99.90;;;;;;5073504;28;20120;-73
2022/04/05 09:32:59;;;;;;;3.13;1.30;;;9.70;99.90;;;;;;5073068;28;20106;-72
2022/04/05 09:35:40;;;;;;;2.72;1.73;;;9.90;99.90;;;;;;5074610;28;20523;-73
2022/04/05 09:38:11;;;;;;;2.10;1.45;;;10.00;99.90;;;;;;5074396;28;20041;-72
2022/04/05 09:40:36;;;;;;;;;;;10.10;99.90;;;;;;5073602;28;20043;-72
2022/04/05 09:43:10;;;;;;;3.10;1.60;;;10.10;99.90;;;;;;5071841;28;19920;-72
2022/04/05 09:45:42;;;;;;;3.50;1.65;;;10.00;99.90;;;;;;5074551;28;20124;-71
2022/04/05 09:48:09;;;;;;;4.88;2.83;;;10.00;99.90;;;;;;5072951;28;20124;-71
2022/04/05 09:51:00;;;;;;;4.75;3.03;;;10.00;99.90;;;;;;5073236;28;20049;-73
2022/04/05 09:53:46;;;;;;;6.07;2.78;;;10.00;99.90;;;;;;5074304;28;20111;-71
2022/04/05 09:56:19;;;;;;;4.50;3.17;;;9.90;99.90;;;;;;5072899;28;20050;-71
2022/04/05 09:58:51;;;;;;;5.43;2.90;;;9.80;99.90;;;;;;5073124;28;20048;-72
2022/04/05 10:01:19;;;;;;;5.18;3.40;;;9.70;99.90;;;;;;5073767;28;20044;-72
2022/04/05 10:03:59;;;;;;;5.97;3.38;;;9.70;99.90;;;;;;5047383;28;20584;-72
2022/04/05 10:06:25;;;;;;;5.68;3.42;;;9.70;99.90;;;;;;5052688;28;20036;-72
2022/04/05 10:08:55;;;;;;;5.63;3.67;;;9.80;99.90;;;;;;5036129;28;20095;-72
2022/04/05 10:11:23;;;;;;;6.03;3.70;;;10.00;99.90;;;;;;5051588;28;20120;-76
2022/04/05 10:13:49;;;;;;;4.57;3.22;;;10.20;99.90;;;;;;5035763;28;20508;-72
2022/04/05 10:16:16;;;;;;;5.22;3.40;;;10.40;99.90;;;;;;5053664;28;20045;-75
2022/04/05 10:18:43;;;;;;;3.90;3.00;;;10.50;99.90;;;;;;5052184;28;20055;-74
2022/04/05 10:21:12;;;;;;;5.57;3.85;;;10.60;99.90;;;;;;5053619;28;20084;-74
2022/04/05 10:23:42;;;;;;;6.38;3.40;;;10.60;99.90;;;;;;5052265;28;20045;-74
2022/04/05 10:26:15;;;;;;;5.55;3.40;;;10.60;99.90;;;;;;5052295;28;20044;-72
2022/04/05 10:28:44;;;;;;;6.18;4.00;;;10.70;99.90;;;;;;5052149;28;20047;-72
2022/04/05 10:31:28;;;;;;;3.65;2.40;;;11.00;99.90;;;;;;5052447;28;20481;-74
2022/04/05 10:34:09;;;;;;;3.15;2.20;;;11.20;99.90;;;;;;5053560;28;20107;-73
2022/04/05 10:36:34;;;;;;;3.08;2.08;;;11.30;99.90;;;;;;5052162;28;20052;-73
2022/04/05 10:39:18;;;;;;;2.92;2.10;;;11.40;99.90;;;;;;5053263;28;20041;-74
2022/04/05 10:42:04;;;;;;;3.10;2.30;;;11.60;99.90;;;;;;5049962;28;20037;-72
2022/04/05 10:44:30;;;;;;;3.25;2.55;;;11.60;99.90;;;;;;5051529;28;20036;-73
2022/04/05 10:47:01;;;;;;;3.78;2.40;;;11.60;99.90;;;;;;5051604;28;20119;-74
2022/04/05 10:49:44;;;;;;;4.35;2.67;;;11.50;99.90;;;;;;5052110;28;20047;-72
2022/04/05 10:52:23;;;;;;;5.30;2.97;;;11.50;99.90;;;;;;5053318;28;20041;-73
2022/04/05 10:55:04;;;;;;;4.13;3.13;;;11.50;99.90;;;;;;5052846;28;20041;-72
2022/04/05 10:57:34;;;;;;;4.40;3.08;;;11.60;99.90;;;;;;5051600;28;20128;-73
2022/04/05 11:00:07;;;;;;;5.78;4.07;;;11.50;99.90;;;;;;5051975;28;20125;-72
2022/04/05 11:02:41;;;;;;;6.72;4.72;;;11.50;99.90;;;;;;5034116;28;20053;-74
2022/04/05 11:05:24;;;;;;;8.23;4.95;;;11.40;99.90;;;;;;5049768;28;20432;-73
2022/04/05 11:07:59;;;;;;;9.23;5.47;;;11.40;99.90;;;;;;5050953;28;20138;-72
2022/04/05 11:10:38;;;;;;;8.02;5.50;;;11.20;99.90;;;;;;5053401;28;20102;-71
2022/04/05 11:13:16;;;;;;;9.70;6.55;;;11.10;99.90;;;;;;5039281;28;20048;-72
2022/04/05 11:15:42;;;;;;;10.85;6.95;;;11.10;99.90;;;;;;5071841;28;20067;-72
2022/04/05 11:18:18;;;;;;;12.30;6.85;;;11.10;99.90;;;;;;5071113;28;20036;-74
2022/04/05 11:20:45;;;;;;;11.77;6.72;;;11.10;99.90;;;;;;5070175;28;20057;-74
2022/04/05 11:23:12;;;;;;;15.38;7.40;;;11.20;99.90;;;;;;5071811;28;20393;-73
2022/04/05 11:25:38;;;;;;;14.65;7.50;;;11.20;99.90;;;;;;5070418;28;20511;-74
2022/04/05 11:28:44;;;;;;;13.27;6.80;;;11.20;99.90;;;;;;5070478;28;20040;-75
2022/04/05 11:31:10;;;;;;;12.43;5.72;;;11.20;99.90;;;;;;5071624;28;20045;-72
2022/04/05 11:33:39;;;;;;;13.00;6.75;;;11.30;99.90;;;;;;5070404;28;20036;-76
2022/04/05 11:36:13;;;;;;;10.38;5.85;;;11.30;99.90;;;;;;5070527;28;20412;-72
2022/04/05 11:38:47;;;;;;;10.23;5.20;;;11.30;99.90;;;;;;5071518;28;20032;-71
2022/04/05 11:41:30;;;;;;;8.55;5.25;;;11.20;99.90;;;;;;5069421;28;20455;-72
2022/04/05 11:44:01;;;;;;;7.75;5.28;;;11.20;99.90;;;;;;5070231;28;20090;-74
2022/04/05 11:46:34;;;;;;;10.57;4.55;;;11.10;99.90;;;;;;5070567;28;20077;-74
2022/04/05 11:49:03;;;;;;;13.05;6.25;;;11.20;99.90;;;;;;5070454;28;20048;-74
2022/04/05 11:51:34;;;;;;;17.70;6.03;;;11.20;99.90;;;;;;5070752;28;20079;-72
2022/04/05 11:54:12;;;;;;;15.73;5.85;;;11.20;99.90;;;;;;5071084;28;20055;-73
2022/04/05 11:56:41;;;;;;;9.90;5.68;;;11.20;99.90;;;;;;5055743;28;20056;-72
2022/04/05 11:59:08;;;;;;;11.38;5.30;;;11.20;99.90;;;;;;5074313;28;20048;-73
2022/04/05 12:01:37;;;;;;;9.30;4.47;;;11.30;99.90;;;;;;5074178;28;20044;-73
2022/04/05 12:04:16;;;;;;;7.85;4.68;;;11.30;99.90;;;;;;5074275;28;20136;-72
2022/04/05 12:06:48;;;;;;;7.68;4.22;;;11.30;99.90;;;;;;5075239;28;20133;-72
2022/04/05 12:09:17;;;;;;;7.57;4.57;;;11.30;99.90;;;;;;5075085;28;20047;-72
2022/04/05 12:11:45;;;;;;;15.45;6.72;;;11.20;99.90;;;;;;5074082;28;20412;-72
2022/04/05 12:14:14;;;;;;;16.13;6.95;;;11.10;99.90;;;;;;5060066;28;20115;-72
2022/04/05 12:16:58;;;;;;;17.60;6.68;;;11.00;99.90;;;;;;5054685;28;20044;-72
2022/04/05 12:19:34;;;;;;;22.55;7.70;;;10.80;99.90;;;;;;5053688;28;20409;-73
2022/04/05 12:22:07;;;;;;;18.15;7.40;;;10.80;99.90;;;;;;5055137;28;20134;-73
2022/04/05 12:24:42;;;;;;;16.75;7.50;;;10.80;99.90;;;;;;5053509;28;20033;-73
2022/04/05 12:27:09;;;;;;;16.92;7.25;;;10.80;99.90;;;;;;5054788;28;20041;-73
2022/04/05 12:29:39;;;;;;;21.88;9.68;;;10.70;99.90;;;;;;5053721;28;20048;-72
2022/04/05 12:32:07;;;;;;;18.75;7.80;;;10.70;99.90;;;;;;5053559;28;20045;-73
2022/04/05 12:34:34;;;;;;;21.65;8.27;;;10.70;99.90;;;;;;5059496;28;20040;-72
2022/04/05 12:37:05;;;;;;;18.30;6.90;;;10.70;99.90;;;;;;5061902;28;20045;-72
2022/04/05 12:39:33;;;;;;;18.13;6.78;;;10.70;99.90;;;;;;5058962;28;20106;-73
2022/04/05 12:42:04;;;;;;;20.67;7.65;;;10.70;99.90;;;;;;5051173;28;20044;-72
2022/04/05 12:44:33;;;;;;;16.80;8.02;;;10.70;99.90;;;;;;5054651;28;20037;-72
2022/04/05 12:47:08;;;;;;;14.73;6.55;;;10.70;99.90;;;;;;5054412;28;20500;-73
2022/04/05 12:49:38;;;;;;;17.38;6.55;;;10.70;99.90;;;;;;5053379;28;20055;-73
2022/04/05 12:52:23;;;;;;;15.52;6.13;;;10.70;99.90;;;;;;5065972;28;20048;-74
2022/04/05 12:54:52;;;;;;;16.77;6.50;;;10.70;99.90;;;;;;5075313;28;20041;-73
2022/04/05 12:57:37;;;;;;;16.17;5.57;;;10.70;99.90;;;;;;5074198;28;20397;-73
2022/04/05 13:00:18;;;;;;;14.18;6.25;;;10.70;99.90;;;;;;5073924;28;20045;-73